createdAt,value
2019-04-30T00:00:56.853Z,22.97
2019-04-30T00:04:37.537Z,22.13
2019-04-30T00:07:58.737Z,23.10
2019-04-30T00:11:21.947Z,22.60
2019-04-30T00:14:45.186Z,22.60
2019-04-30T00:18:08.404Z,23.30
2019-04-30T00:21:32.494Z,20.70
2019-04-30T00:24:55.758Z,23.70
2019-04-30T00:28:18.830Z,22.80
2019-04-30T00:31:41.883Z,22.73
2019-04-30T00:35:07.358Z,27.20
2019-04-30T00:38:34.270Z,23.50
2019-04-30T00:41:56.812Z,24.70
2019-04-30T00:45:20.037Z,26.50
2019-04-30T00:48:43.203Z,25.27
2019-04-30T00:52:06.307Z,25.20
2019-04-30T00:55:29.696Z,27.03
2019-04-30T00:58:57.475Z,27.30
2019-04-30T01:02:41.870Z,26.00
2019-04-30T01:06:07.238Z,27.03
2019-04-30T01:09:30.542Z,25.60
2019-04-30T01:12:53.894Z,26.73
2019-04-30T01:16:17.152Z,26.03
2019-04-30T01:19:40.519Z,26.97
2019-04-30T01:23:09.888Z,25.47
2019-04-30T01:26:31.068Z,25.37
2019-04-30T01:29:58.507Z,23.67
2019-04-30T01:33:21.674Z,27.97
2019-04-30T01:36:50.740Z,25.90
2019-04-30T01:40:13.560Z,24.47
2019-04-30T01:43:35.500Z,25.93
2019-04-30T01:46:58.912Z,26.47
2019-04-30T01:50:24.705Z,26.07
2019-04-30T01:53:48.488Z,26.57
2019-04-30T01:57:30.417Z,27.57
2019-04-30T02:00:59.503Z,26.67
2019-04-30T02:04:26.301Z,25.47
2019-04-30T02:07:49.371Z,27.63
2019-04-30T02:11:12.688Z,27.50
2019-04-30T02:14:35.781Z,30.47
2019-04-30T02:17:59.223Z,27.67
2019-04-30T02:21:22.903Z,26.30
2019-04-30T02:24:48.649Z,27.33
2019-04-30T02:28:11.895Z,27.77
2019-04-30T02:31:35.147Z,27.10
2019-04-30T02:35:20.811Z,27.93
2019-04-30T02:38:49.240Z,28.67
2019-04-30T02:42:13.236Z,27.30
2019-04-30T02:45:40.106Z,27.93
2019-04-30T02:49:05.572Z,28.40
2019-04-30T02:52:31.490Z,26.27
2019-04-30T02:55:56.822Z,29.67
2019-04-30T02:59:20.353Z,26.80
2019-04-30T03:02:43.614Z,29.10
2019-04-30T03:06:06.736Z,27.57
2019-04-30T03:09:30.405Z,27.70
2019-04-30T03:12:55.671Z,26.97
2019-04-30T03:16:23.035Z,27.47
2019-04-30T03:20:20.250Z,25.57
2019-04-30T03:23:38.988Z,26.97
2019-04-30T03:27:02.193Z,26.87
2019-04-30T03:30:25.286Z,29.10
2019-04-30T03:33:52.238Z,25.70
2019-04-30T03:37:13.410Z,27.53
2019-04-30T03:40:36.496Z,26.40
2019-04-30T03:44:16.753Z,27.43
2019-04-30T03:47:25.763Z,29.97
2019-04-30T03:50:55.812Z,28.17
2019-04-30T03:54:13.742Z,28.07
2019-04-30T03:57:39.697Z,29.43
2019-04-30T04:01:19.592Z,28.73
2019-04-30T04:04:52.946Z,29.67
2019-04-30T04:08:36.277Z,30.67
2019-04-30T04:12:20.368Z,30.00
2019-04-30T04:15:43.972Z,28.67
2019-04-30T04:19:09.527Z,33.33
2019-04-30T04:22:31.969Z,31.33
2019-04-30T04:25:55.174Z,31.77
2019-04-30T04:29:19.655Z,28.80
2019-04-30T04:32:43.193Z,32.10
2019-04-30T04:36:06.199Z,30.47
2019-04-30T04:39:29.799Z,30.87
2019-04-30T04:42:56.113Z,30.20
2019-04-30T04:46:20.592Z,31.10
2019-04-30T04:49:43.759Z,30.93
2019-04-30T04:53:08.880Z,30.10
2019-04-30T04:56:32.177Z,29.47
2019-04-30T04:59:55.346Z,30.20
2019-04-30T05:03:26.206Z,30.93
2019-04-30T05:06:49.960Z,29.70
2019-04-30T05:10:13.595Z,31.27
2019-04-30T05:13:36.637Z,30.20
2019-04-30T05:17:00.953Z,31.60
2019-04-30T05:20:26.506Z,30.73
2019-04-30T05:23:49.712Z,32.97
2019-04-30T05:27:12.814Z,31.93
2019-04-30T05:30:35.978Z,34.03
2019-04-30T05:33:59.068Z,31.73
2019-04-30T05:37:22.499Z,31.00
2019-04-30T05:40:45.750Z,32.03
2019-04-30T05:44:09.151Z,29.33
2019-04-30T05:47:32.262Z,29.60
2019-04-30T05:50:56.246Z,28.00
2019-04-30T05:54:19.967Z,29.10
2019-04-30T05:57:53.024Z,26.53
2019-04-30T06:01:09.659Z,30.47
2019-04-30T06:04:33.031Z,27.40
2019-04-30T06:07:56.131Z,27.73
2019-04-30T06:11:39.323Z,28.13
2019-04-30T06:15:25.925Z,26.53
2019-04-30T06:18:49.056Z,28.00
2019-04-30T06:22:12.151Z,28.63
2019-04-30T06:25:52.871Z,26.70
2019-04-30T06:29:00.743Z,27.83
2019-04-30T06:32:29.424Z,27.77
2019-04-30T06:35:54.706Z,28.10
2019-04-30T06:39:18.763Z,27.87
2019-04-30T06:42:42.279Z,27.87
2019-04-30T06:46:05.295Z,29.53
2019-04-30T06:49:29.508Z,28.37
2019-04-30T06:52:56.843Z,29.60
2019-04-30T06:56:18.993Z,24.03
2019-04-30T06:59:42.139Z,26.50
2019-04-30T07:03:06.508Z,26.07
2019-04-30T07:06:32.547Z,24.77
2019-04-30T07:10:02.410Z,25.43
2019-04-30T07:13:29.727Z,26.37
2019-04-30T07:16:55.224Z,26.05
2019-04-30T07:20:19.150Z,25.20
2019-04-30T07:23:42.475Z,29.72
2019-04-30T07:27:05.552Z,27.27
2019-04-30T07:30:30.840Z,29.32
2019-04-30T07:33:56.069Z,27.02
2019-04-30T07:37:24.100Z,27.90
2019-04-30T07:40:44.424Z,29.25
2019-04-30T07:44:10.833Z,27.85
2019-04-30T07:47:32.610Z,27.70
2019-04-30T07:50:55.977Z,28.73
2019-04-30T07:54:19.115Z,27.87
2019-04-30T07:57:42.206Z,27.27
2019-04-30T08:01:05.287Z,28.10
2019-04-30T08:04:50.931Z,27.55
2019-04-30T08:08:20.924Z,27.70
2019-04-30T08:11:41.857Z,27.13
2019-04-30T08:15:04.069Z,27.67
2019-04-30T08:18:27.214Z,27.73
2019-04-30T08:21:50.368Z,26.25
2019-04-30T08:25:13.512Z,27.60
2019-04-30T08:28:38.480Z,29.05
2019-04-30T08:32:01.980Z,27.35
2019-04-30T08:35:25.054Z,27.30
2019-04-30T08:38:49.564Z,28.02
2019-04-30T08:42:12.969Z,32.13
2019-04-30T08:45:36.014Z,30.48
2019-04-30T08:48:59.759Z,32.33
2019-04-30T08:52:25.990Z,34.15
2019-04-30T08:55:49.244Z,34.20
2019-04-30T08:59:12.402Z,32.40
2019-04-30T09:02:35.638Z,30.30
2019-04-30T09:06:21.672Z,31.65
2019-04-30T09:09:45.081Z,28.77
2019-04-30T09:13:10.018Z,28.38
2019-04-30T09:16:33.266Z,30.50
2019-04-30T09:19:58.917Z,30.32
2019-04-30T09:23:22.077Z,28.80
2019-04-30T09:26:45.470Z,28.38
2019-04-30T09:30:10.364Z,28.30
2019-04-30T09:33:33.620Z,28.12
2019-04-30T09:36:58.700Z,28.07
2019-04-30T09:40:22.083Z,29.63
2019-04-30T09:43:45.414Z,27.15
2019-04-30T09:47:09.004Z,28.32
2019-04-30T09:50:32.307Z,27.52
2019-04-30T09:53:59.503Z,27.05
2019-04-30T09:57:20.382Z,27.52
2019-04-30T10:00:43.477Z,27.15
2019-04-30T10:04:09.873Z,25.75
2019-04-30T10:07:32.958Z,24.07
2019-04-30T10:11:10.697Z,24.77
2019-04-30T10:14:33.905Z,24.07
2019-04-30T10:17:57.159Z,22.48
2019-04-30T10:21:20.401Z,23.38
2019-04-30T10:24:43.509Z,20.30
2019-04-30T10:28:06.914Z,23.07
2019-04-30T10:31:30.418Z,22.70
2019-04-30T10:34:53.911Z,21.85
2019-04-30T10:38:17.065Z,25.00
2019-04-30T10:41:40.399Z,24.30
2019-04-30T10:45:14.645Z,24.82
2019-04-30T10:48:37.683Z,23.70
2019-04-30T10:52:01.231Z,23.07
2019-04-30T10:55:25.673Z,23.52
2019-04-30T10:58:48.757Z,24.25
2019-04-30T11:02:11.775Z,26.35
2019-04-30T11:05:34.841Z,24.87
2019-04-30T11:08:58.191Z,23.85
2019-04-30T11:12:21.200Z,25.20
2019-04-30T11:15:44.607Z,23.62
2019-04-30T11:19:09.408Z,25.57
2019-04-30T11:22:33.240Z,25.72
2019-04-30T11:25:57.003Z,26.77
2019-04-30T11:29:23.021Z,26.07
2019-04-30T11:32:45.894Z,24.67
2019-04-30T11:36:09.670Z,26.73
2019-04-30T11:39:32.834Z,25.35
2019-04-30T11:42:56.327Z,24.55
2019-04-30T11:47:28.826Z,22.67
2019-04-30T11:50:51.975Z,23.45
2019-04-30T11:54:15.037Z,23.98
2019-04-30T11:57:39.722Z,24.67
2019-04-30T12:01:04.082Z,23.90
2019-04-30T12:04:27.172Z,25.32
2019-04-30T12:08:03.451Z,25.27
2019-04-30T12:11:31.941Z,23.00
2019-04-30T12:14:55.126Z,23.85
2019-04-30T12:18:18.180Z,23.85
2019-04-30T12:21:41.447Z,24.75
2019-04-30T12:25:05.497Z,19.62
2019-04-30T12:28:29.896Z,20.12
2019-04-30T12:31:55.244Z,20.82
2019-04-30T12:35:18.402Z,23.65
2019-04-30T12:38:41.396Z,19.42
2019-04-30T12:42:04.730Z,19.75
2019-04-30T12:45:29.432Z,19.65
2019-04-30T12:49:00.862Z,17.77
2019-04-30T12:52:39.635Z,20.77
2019-04-30T12:56:13.650Z,21.20
2019-04-30T12:59:36.686Z,18.05
2019-04-30T13:02:59.901Z,19.77
2019-04-30T13:06:25.713Z,19.67
2019-04-30T13:09:50.042Z,19.55
2019-04-30T13:13:14.465Z,20.57
2019-04-30T13:16:39.274Z,19.48
2019-04-30T13:20:02.489Z,18.65
2019-04-30T13:23:25.814Z,20.40
2019-04-30T13:26:49.477Z,17.20
2019-04-30T13:30:26.820Z,20.17
2019-04-30T13:33:54.376Z,18.17
2019-04-30T13:37:19.215Z,18.37
2019-04-30T13:41:08.890Z,18.05
2019-04-30T13:44:35.812Z,19.25
2019-04-30T13:47:58.944Z,17.92
2019-04-30T13:51:22.174Z,19.57
2019-04-30T13:54:47.149Z,17.50
2019-04-30T13:58:10.451Z,17.73
2019-04-30T14:01:33.593Z,16.77
2019-04-30T14:05:13.151Z,17.07
2019-04-30T14:08:41.194Z,21.40
2019-04-30T14:12:04.351Z,18.60
2019-04-30T14:15:29.154Z,18.92
2019-04-30T14:18:58.508Z,17.48
2019-04-30T14:22:21.850Z,17.25
2019-04-30T14:25:55.888Z,19.50
2019-04-30T14:29:10.458Z,20.92
2019-04-30T14:32:33.683Z,19.80
2019-04-30T14:35:56.815Z,21.48
2019-04-30T14:39:20.512Z,21.65
2019-04-30T14:42:50.795Z,21.00
2019-04-30T14:46:40.128Z,20.80
2019-04-30T14:50:10.006Z,23.40
2019-04-30T14:54:05.349Z,22.42
2019-04-30T14:57:46.505Z,24.50
2019-04-30T15:01:39.312Z,22.05
2019-04-30T15:05:09.315Z,23.07
2019-04-30T15:08:32.899Z,23.35
2019-04-30T15:11:56.139Z,20.97
2019-04-30T15:15:19.467Z,23.67
2019-04-30T15:18:43.213Z,20.57
2019-04-30T15:22:08.686Z,21.90
2019-04-30T15:25:34.070Z,20.80
2019-04-30T15:28:59.890Z,23.85
2019-04-30T15:32:23.128Z,21.70
2019-04-30T15:35:48.207Z,21.93
2019-04-30T15:39:39.110Z,23.95
2019-04-30T15:43:04.271Z,22.15
2019-04-30T15:46:27.642Z,24.20
2019-04-30T15:49:50.678Z,21.75
2019-04-30T15:53:16.029Z,23.10
2019-04-30T15:56:40.848Z,24.87
2019-04-30T16:00:05.652Z,25.02
2019-04-30T16:03:31.595Z,24.55
2019-04-30T16:06:58.527Z,23.83
2019-04-30T16:10:36.187Z,26.02
2019-04-30T16:14:19.176Z,26.40
2019-04-30T16:17:44.599Z,25.45
2019-04-30T16:21:09.296Z,25.20
2019-04-30T16:24:33.797Z,23.35
2019-04-30T16:27:57.005Z,27.70
2019-04-30T16:31:20.543Z,25.90
2019-04-30T16:34:44.027Z,27.10
2019-04-30T16:38:09.229Z,22.87
2019-04-30T16:41:32.616Z,23.42
2019-04-30T16:44:56.441Z,24.25
2019-04-30T16:48:19.648Z,23.57
2019-04-30T16:51:44.522Z,26.50
2019-04-30T16:55:08.256Z,23.35
2019-04-30T16:58:51.266Z,36.75
2019-04-30T17:02:14.504Z,25.37
2019-04-30T17:05:55.025Z,25.45
2019-04-30T17:09:28.151Z,23.73
2019-04-30T17:13:01.413Z,25.95
2019-04-30T17:16:26.966Z,24.57
2019-04-30T17:19:50.037Z,26.07
2019-04-30T17:23:13.284Z,25.30
2019-04-30T17:26:36.471Z,25.68
2019-04-30T17:29:59.518Z,24.80
2019-04-30T17:33:25.844Z,24.25
2019-04-30T17:36:49.572Z,24.23
2019-04-30T17:40:13.808Z,23.52
2019-04-30T17:43:36.972Z,23.47
2019-04-30T17:47:00.225Z,25.05
2019-04-30T17:50:25.713Z,25.35
2019-04-30T17:54:09.755Z,25.00
2019-04-30T17:57:34.661Z,23.00
2019-04-30T18:01:00.413Z,23.22
2019-04-30T18:04:26.772Z,24.35
2019-04-30T18:07:49.978Z,25.35
2019-04-30T18:11:19.942Z,26.10
2019-04-30T18:14:45.058Z,25.20
2019-04-30T18:18:21.460Z,23.75
2019-04-30T18:21:50.474Z,24.98
2019-04-30T18:25:33.503Z,24.10
2019-04-30T18:29:02.083Z,25.48
2019-04-30T18:32:32.117Z,26.80
2019-04-30T18:35:55.845Z,22.67
2019-04-30T18:39:20.248Z,24.60
2019-04-30T18:42:45.537Z,22.67
2019-04-30T18:46:13.069Z,24.95
2019-04-30T18:49:36.731Z,24.77
2019-04-30T18:53:05.563Z,24.57
2019-04-30T18:57:02.949Z,23.80
2019-04-30T19:00:40.879Z,23.30
2019-04-30T19:04:15.900Z,26.42
2019-04-30T19:07:50.961Z,25.80
2019-04-30T19:11:29.389Z,26.07
2019-04-30T19:15:13.984Z,24.37
2019-04-30T19:18:50.465Z,25.08
2019-04-30T19:22:13.986Z,23.73
2019-04-30T19:25:38.635Z,24.35
2019-04-30T19:29:02.256Z,24.27
2019-04-30T19:32:25.872Z,25.57
2019-04-30T19:35:50.601Z,25.23
2019-04-30T19:39:16.266Z,26.68
2019-04-30T19:42:40.014Z,23.77
2019-04-30T19:46:03.536Z,24.18
2019-04-30T19:49:30.483Z,25.52
2019-04-30T19:52:55.847Z,26.33
2019-04-30T19:56:20.724Z,24.85
2019-04-30T19:59:45.220Z,27.00
2019-04-30T20:03:08.861Z,27.50
2019-04-30T20:06:32.725Z,26.10
2019-04-30T20:10:01.107Z,26.05
2019-04-30T20:13:31.366Z,26.87
2019-04-30T20:16:49.126Z,27.55
2019-04-30T20:20:14.159Z,26.00
2019-04-30T20:23:38.908Z,26.95
2019-04-30T20:27:09.549Z,26.00
2019-04-30T20:30:30.783Z,25.67
2019-04-30T20:33:55.608Z,26.60
2019-04-30T20:37:19.621Z,27.13
2019-04-30T20:40:57.739Z,25.60
2019-04-30T20:44:10.777Z,27.20
2019-04-30T20:47:35.917Z,25.73
2019-04-30T20:51:01.078Z,24.23
2019-04-30T20:54:26.188Z,26.70
2019-04-30T20:57:49.795Z,27.07
2019-04-30T21:01:13.392Z,25.57
2019-04-30T21:04:36.501Z,26.63
2019-04-30T21:08:03.469Z,24.80
2019-04-30T21:11:28.598Z,27.67
2019-04-30T21:14:51.589Z,27.80
2019-04-30T21:18:14.953Z,26.30
2019-04-30T21:21:38.710Z,25.67
2019-04-30T21:25:03.521Z,26.30
2019-04-30T21:28:29.740Z,26.50
2019-04-30T21:32:12.691Z,26.03
2019-04-30T21:35:44.800Z,27.10
2019-04-30T21:39:12.378Z,26.10
2019-04-30T21:42:35.436Z,25.70
2019-04-30T21:45:59.788Z,29.87
2019-04-30T21:49:24.551Z,27.10
2019-04-30T21:52:49.484Z,29.23
2019-04-30T21:56:12.485Z,27.67
2019-04-30T21:59:35.460Z,26.20
2019-04-30T22:02:59.772Z,28.07
2019-04-30T22:06:25.715Z,28.30
2019-04-30T22:09:48.738Z,26.00
2019-04-30T22:13:11.794Z,30.13
2019-04-30T22:16:34.929Z,28.90
2019-04-30T22:19:59.637Z,29.57
2019-04-30T22:23:25.154Z,28.50
2019-04-30T22:26:48.167Z,28.97
2019-04-30T22:30:11.863Z,27.77
2019-04-30T22:33:35.008Z,29.43
2019-04-30T22:36:58.685Z,30.23
2019-04-30T22:40:29.025Z,27.27
2019-04-30T22:43:52.948Z,29.27
2019-04-30T22:47:16.073Z,29.37
2019-04-30T22:50:39.223Z,28.77
2019-04-30T22:54:02.311Z,29.40
2019-04-30T22:57:25.538Z,30.00
2019-04-30T23:00:50.811Z,31.07
2019-04-30T23:04:21.189Z,33.67
2019-04-30T23:07:44.332Z,30.07
2019-04-30T23:11:07.396Z,32.07
2019-04-30T23:14:30.567Z,32.47
2019-04-30T23:17:55.823Z,31.30
2019-04-30T23:21:18.968Z,29.37
2019-04-30T23:24:42.009Z,32.30
2019-04-30T23:28:05.087Z,29.47
2019-04-30T23:31:28.304Z,31.73
2019-04-30T23:34:51.375Z,34.00
2019-04-30T23:38:14.510Z,32.00
2019-04-30T23:41:37.567Z,33.93
2019-04-30T23:45:00.790Z,31.57
2019-04-30T23:48:25.737Z,31.67
2019-04-30T23:51:50.535Z,34.30
2019-04-30T23:55:13.863Z,33.87
2019-04-30T23:58:36.966Z,33.37
